KBIS/BIS METAR and TAF weather

Enter ICAO airport designator
Station Type Date Time Source
KBIS METAR 2021/06/25 03:52 UTC NOAA

KBIS 250352Z 03006KT 10SM OVC110 24/11 A2993 RMK AO2 RAB30E52 SLP127 P0000 T02390106


Station Type Date Time Source
KBIS Decoded METAR 2021/06/25 03:52 UTC NOAA

BISMARCK MUNICIPAL AIRPORT, ND, United States (KBIS) 46-47N 100-45W 503M
Jun 24, 2021 - 11:52 PM EDT / 2021.06.25 0352 UTC
Wind: from the NNE (030 degrees) at 7 MPH (6 KT):0
Visibility: 10 mile(s):0
Sky conditions: overcast
Precipitation last hour: A trace
Temperature: 75.0 F (23.9 C)
Dew Point: 51.1 F (10.6 C)
Relative Humidity: 43%
Pressure (altimeter): 29.93 in. Hg (1013 hPa)
ob: KBIS 250352Z 03006KT 10SM OVC110 24/11 A2993 RMK AO2 RAB30E52 SLP127 P0000 T02390106
cycle: 4

Station Type Date Time Source
KBIS TAF 2021/06/25 03:09 UTC NOAA

TAF
AMD KBIS 250305Z 2503/2524 06007KT P6SM VCSH BKN080
FM250800 10008KT P6SM SCT045 BKN080
FM251800 15009KT P6SM SCT015 BKN045

Example: see airport list